Terminal Aerodrome Forecast
Issued by NWS

Home | Current Version | Previous Version | Text Only | Print | Product List | Glossary On
Versions: 1 2 3 4 5 6 7 8 9 10 11 12 13 14 15 16
000
FTUS45 KRIW 240500
TAFJAC
TAF
KJAC 240530Z 2406/2506 19011KT P6SM SCT025 BKN040
     FM241800 18014G24KT P6SM VCSH SCT022 BKN035
     FM242200 18012G22KT 3SM -SN BKN022
     FM250200 18011KT P6SM VCSH BKN026
     FM250500 19009KT P6SM BKN035
      AMD LTD TO CLD VIS AND WIND=

USA.gov is the U.S. government's official web portal to all federal, state and local government web resources and services.